Time;durP1;ratioP1;P1;durP2;ratioP2;P2;SDS_P1;SDS_P2;PMS_P1;PMS_P2;Temp;Humidity;BMP_temperature;BMP_pressure;BME280_temperature;BME280_humidity;BME280_pressure;Samples;Min_cycle;Max_cycle;Signal;HPM_P1;HPM_P2
2023/03/05 00:03:09;;;;;;;0.75;0.75;;;;;;;-1.38;90.22;98713.50;10610258;28;20051;-79
2023/03/05 00:08:11;;;;;;;0.95;0.85;;;;;;;-1.33;90.11;98710.03;10611156;28;20051;-79
2023/03/05 00:13:13;;;;;;;1.05;0.77;;;;;;;-1.44;90.53;98709.09;10610776;28;20523;-79
2023/03/05 00:18:16;;;;;;;1.38;0.70;;;;;;;-1.38;90.79;98708.09;10597400;28;20035;-79
2023/03/05 00:23:18;;;;;;;1.80;0.80;;;;;;;-1.41;91.12;98699.69;10602378;28;20500;-78
2023/03/05 00:28:20;;;;;;;1.42;0.95;;;;;;;-1.43;90.93;98699.13;10589150;28;20571;-79
2023/03/05 00:33:22;;;;;;;2.08;0.88;;;;;;;-1.50;91.45;98704.72;10584003;28;20036;-79
2023/03/05 00:38:25;;;;;;;2.08;1.02;;;;;;;-1.43;91.35;98702.66;10610808;28;20044;-79
2023/03/05 00:43:28;;;;;;;2.47;0.80;;;;;;;-1.58;91.44;98702.44;10606018;28;20039;-78
2023/03/05 00:48:30;;;;;;;0.95;0.73;;;;;;;-1.52;91.34;98709.53;10564955;28;20416;-79
2023/03/05 00:53:32;;;;;;;0.70;0.70;;;;;;;-1.62;91.82;98710.22;10601828;28;20051;-79
2023/03/05 00:58:34;;;;;;;1.48;0.60;;;;;;;-1.65;91.83;98709.91;10555614;28;20043;-79
2023/03/05 01:03:36;;;;;;;1.83;0.85;;;;;;;-1.46;92.19;98710.41;10585823;28;20048;-78
2023/03/05 01:08:39;;;;;;;1.23;0.77;;;;;;;-1.29;92.04;98713.84;10588634;28;20420;-79
2023/03/05 01:13:41;;;;;;;0.88;0.73;;;;;;;-1.17;91.72;98717.22;10586396;28;20051;-79
2023/03/05 01:18:43;;;;;;;1.35;0.80;;;;;;;-1.16;91.00;98712.66;10577610;28;20523;-79
2023/03/05 01:23:45;;;;;;;0.93;0.60;;;;;;;-1.11;90.77;98710.00;10602196;28;20039;-79
2023/03/05 01:28:47;;;;;;;1.33;0.82;;;;;;;-0.98;90.71;98720.38;10611186;28;20054;-79
2023/03/05 01:33:53;;;;;;;1.95;0.98;;;;;;;-1.09;90.83;98714.06;10616965;28;20039;-79
2023/03/05 01:38:56;;;;;;;1.48;0.85;;;;;;;-1.20;90.55;98714.22;10579630;28;20039;-78
2023/03/05 01:43:58;;;;;;;1.10;0.90;;;;;;;-1.17;90.71;98717.22;10604843;28;20555;-79
2023/03/05 01:49:21;;;;;;;1.27;1.00;;;;;;;-1.01;90.89;98721.72;10580953;28;20051;-79
2023/03/05 01:54:37;;;;;;;1.60;1.30;;;;;;;-1.21;90.58;98716.09;10592352;28;20036;-78
2023/03/05 01:59:41;;;;;;;1.20;1.10;;;;;;;-1.28;90.86;98715.47;10576580;28;20074;-78
2023/03/05 02:04:53;;;;;;;3.33;1.10;;;;;;;-1.42;91.09;98719.59;10584100;28;20043;-78
2023/03/05 02:09:55;;;;;;;1.30;1.20;;;;;;;-1.51;91.66;98711.16;10580098;28;20047;-78
2023/03/05 02:14:58;;;;;;;2.20;1.27;;;;;;;-1.38;91.69;98709.97;10585112;28;20043;-79
2023/03/05 02:20:10;;;;;;;0.90;0.90;;;;;;;-1.38;92.00;98700.03;10572148;28;20055;-79
2023/03/05 02:25:25;;;;;;;1.45;0.90;;;;;;;-1.33;91.75;98707.34;10597691;28;20497;-80
2023/03/05 02:30:28;;;;;;;1.30;1.20;;;;;;;-1.28;91.65;98708.22;10569366;28;20035;-79
2023/03/05 02:35:31;;;;;;;1.85;1.55;;;;;;;-1.23;91.39;98712.81;10610573;28;20043;-79
2023/03/05 02:40:33;;;;;;;2.00;1.38;;;;;;;-1.13;91.35;98712.97;10560674;28;20039;-79
2023/03/05 02:45:35;;;;;;;1.80;1.60;;;;;;;-1.27;90.68;98717.09;10603183;28;20048;-78
2023/03/05 02:50:38;;;;;;;1.40;1.30;;;;;;;-1.30;91.16;98714.91;10601390;28;20051;-78
2023/03/05 02:55:41;;;;;;;1.40;1.27;;;;;;;-1.31;91.36;98703.34;10590333;28;20035;-79
2023/03/05 03:00:45;;;;;;;1.58;1.30;;;;;;;-1.18;91.24;98714.78;10595961;28;20043;-79
2023/03/05 03:05:47;;;;;;;1.92;1.40;;;;;;;-1.25;91.43;98714.97;10589604;28;20420;-83
2023/03/05 03:10:49;;;;;;;1.98;1.42;;;;;;;-1.52;90.98;98714.91;10605036;27;20055;-79
2023/03/05 03:16:01;;;;;;;1.50;1.40;;;;;;;-1.49;91.50;98719.78;10612706;28;20551;-79
2023/03/05 03:21:04;;;;;;;2.20;1.20;;;;;;;-1.45;92.03;98718.22;10592008;28;20040;-79
2023/03/05 03:26:06;;;;;;;1.90;1.20;;;;;;;-1.34;91.83;98711.09;10607752;28;20055;-78
2023/03/05 03:31:08;;;;;;;2.72;1.70;;;;;;;-1.28;91.68;98710.09;10606287;28;20040;-79
2023/03/05 03:36:11;;;;;;;3.30;1.52;;;;;;;-1.25;91.88;98709.56;10605622;28;20028;-79
2023/03/05 03:41:13;;;;;;;2.95;1.60;;;;;;;-1.37;91.75;98711.59;10607317;28;20525;-79
2023/03/05 03:46:15;;;;;;;2.80;1.85;;;;;;;-1.48;91.42;98712.53;10607555;28;20036;-79
2023/03/05 03:51:17;;;;;;;2.40;1.80;;;;;;;-1.50;91.33;98714.66;10605763;28;20043;-78
2023/03/05 03:56:19;;;;;;;4.25;1.60;;;;;;;-1.46;91.39;98718.47;10605533;28;20051;-79
2023/03/05 04:01:21;;;;;;;5.85;1.80;;;;;;;-1.53;91.70;98713.28;10605885;28;20130;-79
2023/03/05 04:06:24;;;;;;;2.53;1.60;;;;;;;-1.70;91.61;98712.53;10599059;28;20036;-79
2023/03/05 04:11:26;;;;;;;2.97;1.75;;;;;;;-1.76;91.68;98708.94;10607666;28;20397;-78
2023/03/05 04:16:28;;;;;;;3.25;2.08;;;;;;;-1.71;92.19;98711.72;10603448;28;20044;-80
2023/03/05 04:21:30;;;;;;;4.57;1.50;;;;;;;-1.58;92.21;98716.72;10602310;28;20032;-80
2023/03/05 04:26:33;;;;;;;3.97;1.73;;;;;;;-1.33;92.43;98716.22;10601497;28;20043;-80
2023/03/05 04:31:35;;;;;;;1.73;1.63;;;;;;;-1.38;92.01;98718.06;10605425;28;20053;-79
2023/03/05 04:36:37;;;;;;;3.47;1.80;;;;;;;-1.43;91.67;98717.97;10603031;28;20039;-80
2023/03/05 04:41:39;;;;;;;2.08;1.65;;;;;;;-1.39;91.50;98713.72;10606337;28;20039;-80
2023/03/05 04:46:41;;;;;;;2.22;1.80;;;;;;;-1.18;91.36;98710.22;10608975;28;20032;-79
2023/03/05 04:51:43;;;;;;;3.67;1.60;;;;;;;-1.13;90.92;98712.16;10587282;28;20051;-80
2023/03/05 04:56:46;;;;;;;2.35;1.30;;;;;;;-1.30;90.15;98717.59;10604014;28;20036;-80
2023/03/05 05:01:53;;;;;;;2.80;1.48;;;;;;;-1.29;90.15;98720.03;10600793;28;20032;-79
2023/03/05 05:06:59;;;;;;;2.53;1.48;;;;;;;-1.10;90.30;98719.72;10606263;28;20059;-79
2023/03/05 05:12:02;;;;;;;1.70;1.60;;;;;;;-1.09;90.00;98724.84;10579054;28;20040;-80
2023/03/05 05:17:04;;;;;;;1.83;1.52;;;;;;;-1.01;90.03;98724.41;10548935;28;20055;-80
2023/03/05 05:22:07;;;;;;;2.63;1.98;;;;;;;-0.74;89.14;98729.78;10568549;28;20036;-79
2023/03/05 05:27:09;;;;;;;2.50;1.90;;;;;;;-0.50;88.97;98733.00;10579231;28;20051;-79
2023/03/05 05:32:11;;;;;;;3.28;1.95;;;;;;;-0.46;88.38;98727.91;10552178;28;20047;-80
2023/03/05 05:37:14;;;;;;;3.15;2.20;;;;;;;-0.40;88.39;98733.06;10593435;28;20671;-79
2023/03/05 05:42:17;;;;;;;3.55;2.30;;;;;;;-0.71;87.73;98736.53;10570581;28;20463;-79
2023/03/05 05:47:19;;;;;;;3.47;2.25;;;;;;;-0.61;88.33;98732.06;10579176;28;20035;-79
2023/03/05 05:52:22;;;;;;;6.68;2.97;;;;;;;-0.62;88.50;98735.03;10591365;28;20047;-79
2023/03/05 05:57:24;;;;;;;3.72;2.50;;;;;;;-0.75;88.63;98738.94;10561055;28;20036;-80
2023/03/05 06:02:27;;;;;;;3.53;2.72;;;;;;;-0.59;88.71;98741.78;10562043;28;20055;-79
2023/03/05 06:07:35;;;;;;;3.80;2.50;;;;;;;-0.74;88.77;98743.25;10547649;28;1120743;-80
2023/03/05 06:12:37;;;;;;;4.22;2.53;;;;;;;-0.65;89.44;98738.22;10596010;28;20038;-80
2023/03/05 06:17:40;;;;;;;3.00;2.42;;;;;;;-0.52;89.35;98737.81;10613308;28;20040;-79
2023/03/05 06:22:46;;;;;;;4.05;2.35;;;;;;;-0.83;89.09;98747.47;10597425;28;20046;-79
2023/03/05 06:27:52;;;;;;;4.13;2.03;;;;;;;-0.88;89.52;98742.00;10610474;28;20034;-79
2023/03/05 06:32:54;;;;;;;2.25;1.73;;;;;;;-0.84;89.47;98750.44;10590825;28;20047;-81
2023/03/05 06:37:57;;;;;;;3.70;1.88;;;;;;;-1.00;89.41;98750.25;10594502;28;20039;-79
2023/03/05 06:43:03;;;;;;;4.28;2.10;;;;;;;-0.98;89.53;98748.13;10615105;28;20412;-79
2023/03/05 06:48:05;;;;;;;2.25;1.80;;;;;;;-0.76;89.87;98755.34;10614170;28;20052;-79
2023/03/05 06:53:07;;;;;;;2.85;2.30;;;;;;;-0.74;89.94;98748.63;10593353;28;20480;-82
2023/03/05 06:58:13;;;;;;;3.88;2.45;;;;;;;-0.65;90.06;98754.38;10597214;28;20039;-80
2023/03/05 07:03:15;;;;;;;3.78;2.00;;;;;;;-0.72;90.02;98759.16;10612613;28;20043;-79
2023/03/05 07:08:18;;;;;;;4.32;2.35;;;;;;;-0.70;90.13;98754.31;10566123;28;20051;-79
2023/03/05 07:13:20;;;;;;;3.97;2.42;;;;;;;-0.55;89.89;98762.56;10588304;28;20412;-80
2023/03/05 07:18:22;;;;;;;4.13;2.35;;;;;;;-0.71;89.58;98766.97;10602184;28;20044;-79
2023/03/05 07:23:24;;;;;;;4.68;2.60;;;;;;;-0.82;90.14;98762.56;10595384;28;20035;-80
2023/03/05 07:28:27;;;;;;;3.63;2.30;;;;;;;-0.71;90.13;98763.47;10608612;28;20057;-80
2023/03/05 07:33:30;;;;;;;3.42;2.03;;;;;;;-0.87;89.72;98758.97;10584379;28;20031;-80
2023/03/05 07:38:33;;;;;;;2.22;1.70;;;;;;;-1.03;90.10;98766.91;10596320;28;20035;-80
2023/03/05 07:43:35;;;;;;;2.38;1.50;;;;;;;-1.08;89.84;98769.53;10593968;28;20047;-80
2023/03/05 07:48:38;;;;;;;4.03;1.77;;;;;;;-1.01;89.73;98763.97;10572860;28;20035;-79
2023/03/05 07:53:41;;;;;;;2.78;1.60;;;;;;;-1.01;90.52;98763.97;10569522;28;20480;-80
2023/03/05 07:58:43;;;;;;;1.63;1.30;;;;;;;-1.00;90.04;98771.78;10572007;28;20044;-80
2023/03/05 08:03:47;;;;;;;3.40;1.40;;;;;;;-0.85;89.82;98768.47;10578464;28;20039;-80
2023/03/05 08:08:49;;;;;;;3.53;1.70;;;;;;;-0.84;89.47;98777.34;10564896;28;20036;-80
2023/03/05 08:13:52;;;;;;;3.40;1.90;;;;;;;-0.92;89.37;98775.91;10593328;28;20527;-79
2023/03/05 08:18:56;;;;;;;2.22;1.80;;;;;;;-0.96;88.83;98778.28;10612072;28;20036;-80
2023/03/05 08:23:59;;;;;;;3.85;1.48;;;;;;;-0.94;88.70;98776.16;10593271;28;20527;-79
2023/03/05 08:29:02;;;;;;;1.27;0.82;;;;;;;-1.00;88.57;98776.34;10582618;28;20053;-78
2023/03/05 08:34:05;;;;;;;1.38;1.20;;;;;;;-0.93;88.96;98785.84;10619873;28;20047;-78
2023/03/05 08:39:08;;;;;;;1.77;1.05;;;;;;;-0.84;88.65;98785.44;10602336;28;20042;-78
2023/03/05 08:44:11;;;;;;;0.82;0.52;;;;;;;-0.94;88.03;98791.50;10620341;28;20044;-77
2023/03/05 08:49:13;;;;;;;1.40;0.45;;;;;;;-0.95;88.59;98800.63;10617364;28;20048;-77
2023/03/05 08:54:15;;;;;;;1.33;0.88;;;;;;;-0.97;88.20;98800.09;10620735;28;20039;-77
2023/03/05 08:59:18;;;;;;;1.02;0.50;;;;;;;-1.02;88.24;98791.94;10601674;28;20526;-77
2023/03/05 09:04:20;;;;;;;0.22;0.22;;;;;;;-0.98;88.12;98788.50;10581794;28;20047;-78
2023/03/05 09:09:23;;;;;;;0.80;0.65;;;;;;;-1.04;88.27;98797.59;10621105;28;20057;-77
2023/03/05 09:14:27;;;;;;;2.47;1.38;;;;;;;-0.76;88.54;98799.25;10602069;28;20439;-79
2023/03/05 09:19:29;;;;;;;2.00;1.33;;;;;;;-0.54;88.54;98799.19;10601708;28;20046;-77
2023/03/05 09:24:31;;;;;;;1.02;0.93;;;;;;;-0.33;88.53;98787.56;10600561;28;20054;-78
2023/03/05 09:29:34;;;;;;;1.83;1.05;;;;;;;-0.06;87.65;98794.78;10589598;28;20044;-77
2023/03/05 09:34:36;;;;;;;3.13;1.23;;;;;;;-0.11;86.42;98797.47;10574565;28;20035;-79
2023/03/05 09:39:42;;;;;;;1.98;1.10;;;;;;;-0.06;86.06;98795.59;10593132;28;20047;-79
2023/03/05 09:44:59;;;;;;;2.35;1.50;;;;;;;0.07;85.31;98790.88;10591767;28;20043;-82
2023/03/05 09:50:34;;;;;;;2.55;1.40;;;;;;;0.39;85.12;98796.22;10571710;28;20040;-79
2023/03/05 09:55:45;;;;;;;3.47;1.60;;;;;;;0.41;83.18;98796.78;10614440;28;20530;-78
2023/03/05 10:00:49;;;;;;;2.25;1.40;;;;;;;0.36;83.84;98797.56;10592407;28;20515;-79
2023/03/05 10:06:21;;;;;;;1.70;1.15;;;;;;;0.34;83.90;98804.25;10591466;28;20412;-77
2023/03/05 10:11:28;;;;;;;1.60;1.23;;;;;;;0.24;83.73;98803.13;10615464;28;20416;-77
2023/03/05 10:17:25;;;;;;;1.75;1.30;;;;;;;-0.03;84.29;98797.78;10602695;28;20404;-78
2023/03/05 10:22:31;;;;;;;0.65;0.60;;;;;;;-0.17;83.99;98806.59;10548542;28;20058;-78
2023/03/05 10:27:43;;;;;;;1.70;1.33;;;;;;;-0.12;84.88;98810.13;10602716;28;20040;-78
2023/03/05 10:32:56;;;;;;;1.05;0.85;;;;;;;-0.14;84.82;98806.06;10618656;28;20039;-77
2023/03/05 10:38:43;;;;;;;;;;;;;;;-0.18;84.93;98797.66;10621130;28;20150;-77
2023/03/05 10:43:59;;;;;;;1.23;0.85;;;;;;;-0.12;84.79;98812.00;10541094;28;20406;-76
2023/03/05 10:49:11;;;;;;;1.90;1.40;;;;;;;0.09;85.17;98811.09;10582358;27;20046;-78
2023/03/05 10:54:27;;;;;;;2.25;1.25;;;;;;;-0.02;84.58;98804.81;10608699;27;20044;-77
2023/03/05 10:59:31;;;;;;;2.08;1.48;;;;;;;0.00;84.86;98804.56;10604360;28;20047;-79
2023/03/05 11:04:36;;;;;;;1.67;1.10;;;;;;;0.00;84.78;98807.28;10587344;28;20447;-82
2023/03/05 11:09:38;;;;;;;3.00;1.83;;;;;;;0.00;84.75;98809.97;10587768;27;20059;-78
2023/03/05 11:14:47;;;;;;;3.60;1.58;;;;;;;-0.05;84.76;98815.28;10589505;27;20058;-78
2023/03/05 11:19:49;;;;;;;4.47;1.05;;;;;;;-0.25;85.21;98815.13;10588717;28;20412;-78
2023/03/05 11:25:03;;;;;;;2.70;1.60;;;;;;;-0.12;85.30;98815.50;10607455;28;20039;-78
2023/03/05 11:30:18;;;;;;;2.00;1.42;;;;;;;-0.10;85.46;98812.56;10604169;27;20043;-78
2023/03/05 11:35:34;;;;;;;1.58;1.40;;;;;;;-0.14;86.04;98817.66;10603182;28;20496;-76
2023/03/05 11:40:36;;;;;;;2.22;1.60;;;;;;;-0.14;85.29;98811.47;10607244;28;20160;-78
2023/03/05 11:45:39;;;;;;;2.13;1.30;;;;;;;-0.13;85.21;98818.47;10591997;28;20427;-79
2023/03/05 11:50:43;;;;;;;2.15;1.45;;;;;;;-0.03;84.87;98813.97;10616974;28;20040;-78
2023/03/05 11:55:48;;;;;;;4.82;1.98;;;;;;;-0.06;84.52;98813.66;10596267;28;20035;-81
2023/03/05 12:00:50;;;;;;;5.60;2.10;;;;;;;-0.02;85.12;98807.50;10598482;28;20412;-80
2023/03/05 12:05:56;;;;;;;2.70;1.80;;;;;;;0.04;84.45;98815.66;10596251;28;20050;-81
2023/03/05 12:11:00;;;;;;;2.72;1.77;;;;;;;-0.13;85.27;98813.88;10565978;28;20058;-78
2023/03/05 12:16:12;;;;;;;2.33;2.00;;;;;;;-0.25;84.97;98815.13;10575725;28;20051;-77
2023/03/05 12:21:41;;;;;;;2.13;1.17;;;;;;;-0.27;85.20;98822.66;10618693;28;20518;-79
2023/03/05 12:26:55;;;;;;;3.17;2.08;;;;;;;-0.28;85.37;98816.44;10588551;28;20046;-80
2023/03/05 12:31:59;;;;;;;2.28;2.03;;;;;;;-0.32;85.22;98809.94;10602763;28;20489;-77
2023/03/05 12:37:03;;;;;;;2.55;1.98;;;;;;;-0.29;85.35;98814.00;10583644;28;20053;-81
2023/03/05 12:42:27;;;;;;;3.30;1.92;;;;;;;-0.29;84.88;98816.69;10599614;28;20502;-78
2023/03/05 12:47:29;;;;;;;5.65;2.17;;;;;;;-0.17;85.59;98817.38;10603752;28;20062;-78
2023/03/05 12:52:45;;;;;;;2.92;1.63;;;;;;;-0.18;84.72;98826.50;10601117;28;20024;-79
2023/03/05 12:58:11;;;;;;;2.78;1.63;;;;;;;-0.28;84.48;98826.41;10595984;28;20099;-79
2023/03/05 13:03:21;;;;;;;2.72;1.60;;;;;;;-0.29;83.97;98822.09;10563261;28;20057;-80
2023/03/05 13:08:25;;;;;;;2.88;1.77;;;;;;;-0.12;84.09;98822.78;10616172;28;20128;-79
2023/03/05 13:13:30;;;;;;;3.47;1.35;;;;;;;-0.36;84.42;98831.19;10571772;28;20465;-80
2023/03/05 13:18:38;;;;;;;4.88;2.00;;;;;;;-0.61;85.00;98834.44;10604900;28;20428;-80
2023/03/05 13:23:56;;;;;;;2.47;1.60;;;;;;;-0.67;85.30;98835.44;10600190;28;20538;-79
2023/03/05 13:29:18;;;;;;;2.42;1.35;;;;;;;-0.57;85.55;98834.72;10603211;28;20040;-79
2023/03/05 13:34:24;;;;;;;2.03;1.42;;;;;;;-0.74;85.20;98836.69;10594789;28;20049;-78
2023/03/05 13:39:29;;;;;;;5.22;1.95;;;;;;;-0.69;86.27;98834.88;10610210;28;20058;-78
2023/03/05 13:44:33;;;;;;;2.75;1.60;;;;;;;-0.85;86.24;98841.16;10605967;28;20044;-79
2023/03/05 13:49:35;;;;;;;3.97;1.92;;;;;;;-1.04;87.04;98837.97;10603485;28;20035;-79
2023/03/05 13:54:38;;;;;;;2.67;1.83;;;;;;;-1.13;87.80;98842.13;10605189;28;20054;-79
2023/03/05 13:59:51;;;;;;;2.80;1.70;;;;;;;-1.18;88.32;98847.47;10583368;28;20050;-78
2023/03/05 14:04:53;;;;;;;4.93;2.45;;;;;;;-1.16;88.86;98839.13;10557070;28;20043;-78
2023/03/05 14:09:56;;;;;;;3.75;1.80;;;;;;;-1.14;89.04;98840.50;10590138;27;20043;-80
2023/03/05 14:15:01;;;;;;;3.30;2.15;;;;;;;-1.13;88.95;98841.31;10569638;28;20519;-79
2023/03/05 14:20:26;;;;;;;3.20;2.03;;;;;;;-1.29;89.25;98848.38;10612779;28;20059;-78
2023/03/05 14:25:29;;;;;;;3.33;1.88;;;;;;;-1.44;89.84;98840.09;10589404;28;20044;-78
2023/03/05 14:30:33;;;;;;;3.22;2.13;;;;;;;-1.49;89.87;98845.41;10610094;27;20040;-79
2023/03/05 14:35:36;;;;;;;3.22;2.10;;;;;;;-1.50;90.48;98839.22;10592625;28;20040;-79
2023/03/05 14:40:39;;;;;;;4.00;2.08;;;;;;;-1.40;90.93;98841.22;10601308;27;20070;-79
2023/03/05 14:45:42;;;;;;;4.20;2.00;;;;;;;-1.50;91.08;98844.59;10588834;27;20130;-79
2023/03/05 14:50:50;;;;;;;2.70;2.20;;;;;;;-1.66;91.00;98853.47;10622481;27;20488;-80
2023/03/05 14:55:55;;;;;;;3.90;2.08;;;;;;;-1.67;91.69;98851.84;10616669;28;20447;-79
2023/03/05 15:00:58;;;;;;;2.10;1.80;;;;;;;-1.72;91.94;98857.16;10621461;28;20035;-78
2023/03/05 15:06:00;;;;;;;2.10;1.75;;;;;;;-1.86;92.34;98864.72;10601341;28;20047;-78
2023/03/05 15:11:03;;;;;;;3.13;2.40;;;;;;;-1.83;93.03;98869.63;10622077;28;20703;-80
2023/03/05 15:16:06;;;;;;;4.15;2.67;;;;;;;-1.84;93.36;98865.28;10583946;27;20036;-79
2023/03/05 15:21:08;;;;;;;2.85;2.03;;;;;;;-1.99;93.39;98870.41;10622747;27;20511;-80
2023/03/05 15:26:13;;;;;;;2.92;1.88;;;;;;;-2.02;93.65;98877.09;10589621;27;20035;-79
2023/03/05 15:31:16;;;;;;;3.38;1.70;;;;;;;-2.14;93.58;98884.41;10581865;28;20036;-80
2023/03/05 15:36:19;;;;;;;2.28;1.75;;;;;;;-2.21;93.41;98873.81;10600625;27;20039;-80
2023/03/05 15:41:21;;;;;;;3.20;1.95;;;;;;;-2.15;93.80;98878.22;10569748;27;20057;-79
2023/03/05 15:46:23;;;;;;;2.15;1.60;;;;;;;-2.15;94.17;98880.91;10614474;27;20361;-79
2023/03/05 15:51:26;;;;;;;2.42;1.80;;;;;;;-2.05;93.71;98882.97;10589527;28;20408;-82
2023/03/05 15:56:28;;;;;;;2.60;1.67;;;;;;;-2.06;93.40;98880.50;10560586;27;20036;-79
2023/03/05 16:01:30;;;;;;;2.63;1.40;;;;;;;-2.02;93.31;98881.66;10595452;28;20032;-77
2023/03/05 16:06:33;;;;;;;1.95;1.45;;;;;;;-2.12;92.89;98883.09;10617895;27;20546;-77
2023/03/05 16:11:37;;;;;;;1.50;1.40;;;;;;;-2.16;92.16;98889.19;10565740;28;20031;-79
2023/03/05 16:16:39;;;;;;;3.33;1.75;;;;;;;-2.13;91.73;98884.16;10568478;28;20039;-79
2023/03/05 16:21:41;;;;;;;1.85;1.60;;;;;;;-2.14;91.60;98887.91;10540585;28;20040;-78
2023/03/05 16:26:43;;;;;;;2.13;1.80;;;;;;;-2.13;91.07;98892.22;10564414;28;20046;-78
2023/03/05 16:31:46;;;;;;;2.55;1.90;;;;;;;-1.97;91.16;98889.78;10578833;28;20036;-82
2023/03/05 16:36:51;;;;;;;2.90;1.48;;;;;;;-1.92;90.75;98892.56;10548129;28;20063;-79
2023/03/05 16:41:53;;;;;;;2.67;1.52;;;;;;;-2.05;90.23;98893.72;10544993;28;20397;-79
2023/03/05 16:46:55;;;;;;;2.00;1.35;;;;;;;-1.88;89.79;98889.16;10545905;28;20048;-81
2023/03/05 16:51:58;;;;;;;2.00;1.70;;;;;;;-2.08;89.39;98898.72;10575968;28;20520;-80
2023/03/05 16:57:00;;;;;;;4.10;1.73;;;;;;;-2.16;89.36;98898.06;10554599;28;20050;-79
2023/03/05 17:02:03;;;;;;;1.60;1.30;;;;;;;-2.10;88.98;98896.28;10559058;28;20048;-79
2023/03/05 17:07:05;;;;;;;1.33;1.20;;;;;;;-2.09;88.60;98891.72;10572055;28;20058;-80
2023/03/05 17:12:11;;;;;;;1.80;1.50;;;;;;;-2.13;88.66;98894.09;10637285;27;20040;-79
2023/03/05 17:17:18;;;;;;;1.60;1.50;;;;;;;-2.29;88.14;98895.69;10588766;28;20077;-80
2023/03/05 17:22:20;;;;;;;1.70;1.20;;;;;;;-2.28;88.16;98893.81;10616305;27;20028;-81
2023/03/05 17:27:22;;;;;;;2.70;1.38;;;;;;;-2.34;87.98;98898.28;10588598;27;20039;-80
2023/03/05 17:32:25;;;;;;;2.38;1.60;;;;;;;-2.36;88.17;98888.84;10616054;27;20377;-80
2023/03/05 17:37:32;;;;;;;2.80;2.03;;;;;;;-2.35;87.59;98899.34;10588726;27;20043;-81
2023/03/05 17:42:59;;;;;;;3.30;1.83;;;;;;;-2.30;87.39;98893.22;10598858;28;20040;-79
2023/03/05 17:48:02;;;;;;;2.42;1.63;;;;;;;-2.32;87.38;98895.34;10599586;28;20044;-78
2023/03/05 17:53:05;;;;;;;1.85;1.58;;;;;;;-2.38;87.23;98899.00;10618973;27;20048;-80
2023/03/05 17:58:08;;;;;;;2.58;1.92;;;;;;;-2.37;87.45;98897.94;10598204;27;20043;-78
2023/03/05 18:03:14;;;;;;;2.00;1.80;;;;;;;-2.43;87.16;98891.66;10614704;27;20067;-78
2023/03/05 18:08:17;;;;;;;3.20;1.60;;;;;;;-2.50;87.06;98885.59;10610700;27;20051;-81
2023/03/05 18:13:19;;;;;;;2.25;1.52;;;;;;;-2.53;86.91;98894.16;10598255;27;20045;-81
2023/03/05 18:18:22;;;;;;;2.45;1.70;;;;;;;-2.54;86.63;98887.16;10616095;27;20046;-78
2023/03/05 18:23:24;;;;;;;1.90;1.65;;;;;;;-2.69;86.24;98882.28;10614435;28;20042;-79
2023/03/05 18:28:26;;;;;;;2.15;1.48;;;;;;;-2.64;86.58;98878.88;10596511;28;20046;-79
2023/03/05 18:33:29;;;;;;;3.78;1.98;;;;;;;-2.67;86.58;98882.06;10616469;28;20039;-78
2023/03/05 18:38:31;;;;;;;3.30;2.05;;;;;;;-2.71;86.79;98888.94;10618524;28;20047;-78
2023/03/05 18:43:39;;;;;;;3.28;1.80;;;;;;;-2.80;86.95;98886.63;10607103;28;20047;-78
2023/03/05 18:48:46;;;;;;;3.55;1.90;;;;;;;-2.78;86.89;98889.06;10611482;28;20125;-79
2023/03/05 18:53:50;;;;;;;3.30;2.08;;;;;;;-2.75;87.32;98888.63;10615759;27;20040;-78
2023/03/05 18:58:57;;;;;;;2.25;1.65;;;;;;;-2.56;87.84;98892.75;10601231;27;20044;-80
2023/03/05 19:04:00;;;;;;;3.37;1.87;;;;;;;-2.46;87.49;98887.56;10615327;28;20122;-81
2023/03/05 19:09:09;;;;;;;3.67;2.15;;;;;;;-2.42;86.52;98881.75;10539924;28;20048;-81
2023/03/05 19:14:11;;;;;;;2.95;1.98;;;;;;;-2.32;86.93;98877.34;10555288;28;20051;-80
2023/03/05 19:24:21;;;;;;;5.97;2.70;;;;;;;-2.51;86.48;98873.25;10553729;28;20481;-81
2023/03/05 19:29:25;;;;;;;4.25;2.50;;;;;;;-2.52;86.54;98866.25;10577814;28;20036;-81
2023/03/05 19:34:27;;;;;;;2.85;2.15;;;;;;;-2.65;86.50;98869.19;10550710;28;20056;-80
2023/03/05 19:39:30;;;;;;;4.82;2.35;;;;;;;-2.63;87.09;98859.84;10589608;28;20044;-79
2023/03/05 19:44:32;;;;;;;3.40;2.10;;;;;;;-2.54;86.91;98862.97;10563520;28;20071;-78
2023/03/05 19:49:34;;;;;;;6.85;2.85;;;;;;;-2.67;86.52;98874.81;10542947;28;20040;-80
2023/03/05 19:54:37;;;;;;;5.90;3.03;;;;;;;-2.74;86.98;98864.22;10511179;28;20047;-80
2023/03/05 19:59:39;;;;;;;4.57;2.40;;;;;;;-2.82;87.21;98874.50;10580145;28;20043;-79
2023/03/05 20:04:41;;;;;;;3.20;2.42;;;;;;;-2.93;87.25;98878.88;10541014;28;20044;-78
2023/03/05 20:09:50;;;;;;;5.30;2.80;;;;;;;-2.96;87.72;98873.13;10554023;28;20044;-79
2023/03/05 20:14:52;;;;;;;4.78;2.80;;;;;;;-2.95;88.29;98870.25;10560896;28;20040;-78
2023/03/05 20:19:57;;;;;;;4.85;3.38;;;;;;;-3.03;88.28;98870.59;10558384;28;20869;-82
2023/03/05 20:24:59;;;;;;;8.50;4.13;;;;;;;-3.05;88.31;98875.38;10540166;28;20042;-78
2023/03/05 20:30:04;;;;;;;6.60;4.38;;;;;;;-3.11;88.85;98870.97;10577509;28;20040;-79
2023/03/05 20:35:07;;;;;;;9.88;4.40;;;;;;;-3.18;88.66;98871.06;10559266;28;20035;-78
2023/03/05 20:40:10;;;;;;;10.35;5.28;;;;;;;-3.29;88.68;98873.78;10555298;28;20485;-81
2023/03/05 20:45:12;;;;;;;8.05;4.97;;;;;;;-3.42;88.84;98872.97;10539584;28;20036;-80
2023/03/05 20:50:15;;;;;;;7.70;4.85;;;;;;;-3.41;89.07;98865.75;10575578;28;20043;-79
2023/03/05 20:55:17;;;;;;;6.53;4.25;;;;;;;-3.50;89.52;98867.94;10573958;28;20040;-79
2023/03/05 21:00:20;;;;;;;6.15;4.00;;;;;;;-3.36;89.67;98861.28;10577253;28;20036;-80
2023/03/05 21:05:23;;;;;;;8.77;4.80;;;;;;;-3.27;89.67;98859.09;10554681;28;20239;-78
2023/03/05 21:10:26;;;;;;;10.75;5.32;;;;;;;-3.31;89.87;98852.53;10600719;28;20406;-79
2023/03/05 21:15:29;;;;;;;11.48;6.18;;;;;;;-3.39;89.62;98866.31;10614230;28;20036;-79
2023/03/05 21:20:31;;;;;;;15.95;7.97;;;;;;;-3.49;90.14;98861.53;10601330;28;20039;-79
2023/03/05 21:25:33;;;;;;;14.52;9.55;;;;;;;-3.55;90.03;98857.13;10595077;28;20039;-79
2023/03/05 21:30:38;;;;;;;17.35;9.82;;;;;;;-3.60;90.03;98853.50;10618356;28;20035;-77
2023/03/05 21:35:41;;;;;;;16.95;8.85;;;;;;;-3.64;90.60;98855.84;10602284;28;20046;-79
2023/03/05 21:40:47;;;;;;;14.98;8.20;;;;;;;-3.64;90.88;98850.47;10602209;28;20039;-80
2023/03/05 21:45:52;;;;;;;19.85;9.63;;;;;;;-3.58;90.95;98852.22;10625939;28;20043;-79
2023/03/05 21:50:54;;;;;;;20.63;10.70;;;;;;;-3.73;90.55;98857.22;10607735;28;20488;-79
2023/03/05 22:01:21;;;;;;;19.23;9.95;;;;;;;-3.60;91.43;98857.00;10627038;27;20492;-79
2023/03/05 22:06:23;;;;;;;18.58;8.27;;;;;;;-3.68;90.64;98847.44;10625875;28;20044;-78
2023/03/05 22:11:25;;;;;;;17.73;8.40;;;;;;;-3.70;90.70;98843.34;10602569;27;20055;-78
2023/03/05 22:16:27;;;;;;;15.07;7.28;;;;;;;-3.76;90.18;98849.66;10586947;28;20492;-79
2023/03/05 22:21:30;;;;;;;14.60;7.72;;;;;;;-3.88;90.35;98846.16;10621381;28;20055;-79
2023/03/05 22:26:37;;;;;;;15.68;7.90;;;;;;;-3.86;90.24;98852.09;10617982;27;20040;-79
2023/03/05 22:31:39;;;;;;;17.63;8.87;;;;;;;-3.99;90.08;98847.78;10614960;27;20496;-79
2023/03/05 22:36:41;;;;;;;18.35;8.68;;;;;;;-4.10;90.08;98848.56;10604623;28;20404;-79
2023/03/05 22:41:44;;;;;;;17.50;8.60;;;;;;;-4.14;89.88;98836.69;10598548;27;20043;-78
2023/03/05 22:46:46;;;;;;;13.88;7.07;;;;;;;-4.24;90.27;98842.59;10621368;28;20039;-79
2023/03/05 22:51:48;;;;;;;14.00;6.57;;;;;;;-4.44;89.97;98845.56;10624598;28;20047;-77
2023/03/05 22:56:50;;;;;;;13.88;6.30;;;;;;;-4.53;89.93;98836.22;10609028;27;20039;-79
2023/03/05 23:01:52;;;;;;;15.68;6.47;;;;;;;-4.54;90.48;98842.59;10614116;27;20042;-79
2023/03/05 23:06:55;;;;;;;11.43;6.63;;;;;;;-4.66;89.91;98842.59;10621997;28;20148;-79
2023/03/05 23:11:57;;;;;;;13.98;6.95;;;;;;;-4.70;89.88;98838.72;10620501;28;20043;-77
2023/03/05 23:17:03;;;;;;;12.95;6.80;;;;;;;-4.70;90.24;98828.00;10621841;28;20039;-78
2023/03/05 23:22:07;;;;;;;12.32;6.85;;;;;;;-4.84;89.66;98831.94;10605937;27;20046;-79
2023/03/05 23:27:14;;;;;;;14.70;6.72;;;;;;;-4.92;89.84;98835.72;10600767;28;20100;-78
2023/03/05 23:32:17;;;;;;;11.88;6.30;;;;;;;-4.97;89.78;98827.56;10629458;27;20102;-79
2023/03/05 23:37:19;;;;;;;9.80;5.45;;;;;;;-5.08;89.84;98824.81;10619938;28;20039;-79
2023/03/05 23:42:21;;;;;;;7.80;4.40;;;;;;;-5.05;90.09;98832.38;10619868;27;20427;-79
2023/03/05 23:47:24;;;;;;;9.65;5.07;;;;;;;-4.86;90.23;98828.63;10597841;28;20111;-79